createdAt,value
2023-01-17T00:00:46.987Z,2.75
2023-01-17T00:01:46.952Z,2.74
2023-01-17T00:02:47.052Z,2.79
2023-01-17T00:03:47.013Z,2.74
2023-01-17T00:04:46.942Z,2.75
2023-01-17T00:05:46.927Z,2.75
2023-01-17T00:06:46.888Z,2.75
2023-01-17T00:07:46.920Z,2.72
2023-01-17T00:08:46.877Z,2.71
2023-01-17T00:09:46.876Z,2.64
2023-01-17T00:10:46.894Z,2.66
2023-01-17T00:11:46.833Z,2.72
2023-01-17T00:12:46.835Z,2.75
2023-01-17T00:13:46.816Z,2.72
2023-01-17T00:14:46.809Z,2.67
2023-01-17T00:15:46.824Z,2.77
2023-01-17T00:16:46.797Z,2.78
2023-01-17T00:17:46.845Z,2.64
2023-01-17T00:18:46.773Z,2.78
2023-01-17T00:19:46.753Z,2.72
2023-01-17T00:20:46.774Z,2.72
2023-01-17T00:21:46.733Z,2.69
2023-01-17T00:22:46.744Z,2.74
2023-01-17T00:23:46.705Z,2.78
2023-01-17T00:24:46.687Z,2.77
2023-01-17T00:25:46.748Z,2.72
2023-01-17T00:26:46.666Z,2.72
2023-01-17T00:27:46.665Z,2.75
2023-01-17T00:28:46.674Z,2.75
2023-01-17T00:29:46.642Z,2.67
2023-01-17T00:30:46.644Z,2.74
2023-01-17T00:31:46.705Z,2.69
2023-01-17T00:32:46.737Z,2.75
2023-01-17T00:33:46.605Z,2.66
2023-01-17T00:34:46.604Z,2.69
2023-01-17T00:35:46.566Z,2.74
2023-01-17T00:36:46.557Z,2.71
2023-01-17T00:37:46.570Z,2.64
2023-01-17T00:38:46.558Z,2.69
2023-01-17T00:39:46.519Z,2.74
2023-01-17T00:40:46.579Z,2.77
2023-01-17T00:41:46.493Z,2.71
2023-01-17T00:42:46.488Z,2.78
2023-01-17T00:43:46.509Z,2.72
2023-01-17T00:44:46.470Z,2.74
2023-01-17T00:45:46.446Z,2.69
2023-01-17T00:46:46.518Z,2.75
2023-01-17T00:47:46.465Z,2.71
2023-01-17T00:48:46.445Z,2.72
2023-01-17T00:49:46.426Z,2.71
2023-01-17T00:50:46.413Z,2.74
2023-01-17T00:51:46.443Z,2.63
2023-01-17T00:52:46.370Z,2.61
2023-01-17T00:53:46.381Z,2.60
2023-01-17T00:54:46.392Z,2.59
2023-01-17T00:55:46.347Z,2.63
2023-01-17T00:56:46.352Z,2.54
2023-01-17T00:57:46.304Z,2.49
2023-01-17T00:58:46.319Z,2.54
2023-01-17T00:59:46.322Z,2.53
2023-01-17T01:00:46.445Z,2.53
2023-01-17T01:01:46.487Z,2.49
2023-01-17T01:02:46.347Z,2.56
2023-01-17T01:03:46.244Z,2.54
2023-01-17T01:04:46.308Z,2.54
2023-01-17T01:05:46.216Z,2.54
2023-01-17T01:06:46.216Z,2.54
2023-01-17T01:07:46.323Z,2.52
2023-01-17T01:08:46.214Z,2.53
2023-01-17T01:09:46.207Z,2.54
2023-01-17T01:10:46.171Z,2.56
2023-01-17T01:11:46.149Z,2.56
2023-01-17T01:12:46.153Z,2.56
2023-01-17T01:13:46.145Z,2.48
2023-01-17T01:14:46.128Z,2.53
2023-01-17T01:15:46.130Z,2.53
2023-01-17T01:16:46.105Z,2.54
2023-01-17T01:17:46.131Z,2.48
2023-01-17T01:18:46.105Z,2.49
2023-01-17T01:19:46.097Z,2.48
2023-01-17T01:20:46.064Z,2.52
2023-01-17T01:21:46.064Z,2.56
2023-01-17T01:22:46.066Z,2.53
2023-01-17T01:23:46.026Z,2.56
2023-01-17T01:24:46.044Z,2.57
2023-01-17T01:25:46.008Z,2.52
2023-01-17T01:26:45.991Z,2.53
2023-01-17T01:27:46.029Z,2.57
2023-01-17T01:28:45.974Z,2.53
2023-01-17T01:29:45.951Z,2.54
2023-01-17T01:30:45.969Z,2.53
2023-01-17T01:31:45.956Z,2.52
2023-01-17T01:32:45.918Z,2.59
2023-01-17T01:33:45.948Z,2.56
2023-01-17T01:34:45.898Z,2.48
2023-01-17T01:35:45.897Z,2.45
2023-01-17T01:36:45.903Z,2.43
2023-01-17T01:37:45.847Z,2.52
2023-01-17T01:38:45.863Z,2.45
2023-01-17T01:39:45.881Z,2.52
2023-01-17T01:40:45.849Z,2.46
2023-01-17T01:41:45.858Z,2.52
2023-01-17T01:42:45.819Z,2.49
2023-01-17T01:43:45.787Z,2.45
2023-01-17T01:44:45.804Z,2.49
2023-01-17T01:45:45.822Z,2.49
2023-01-17T01:46:45.778Z,2.45
2023-01-17T01:47:45.774Z,2.48
2023-01-17T01:48:45.741Z,2.49
2023-01-17T01:49:45.741Z,2.52
2023-01-17T01:50:45.735Z,2.46
2023-01-17T01:51:45.722Z,2.52
2023-01-17T01:52:45.722Z,2.56
2023-01-17T01:53:45.751Z,2.54
2023-01-17T01:54:45.675Z,2.52
2023-01-17T01:55:45.649Z,2.56
2023-01-17T01:56:45.696Z,2.54
2023-01-17T01:57:45.639Z,2.54
2023-01-17T01:58:45.649Z,2.52
2023-01-17T01:59:45.616Z,2.60
2023-01-17T02:00:45.766Z,2.48
2023-01-17T02:01:45.752Z,2.56
2023-01-17T02:02:45.578Z,2.56
2023-01-17T02:03:45.660Z,2.52
2023-01-17T02:04:45.558Z,2.48
2023-01-17T02:05:45.575Z,2.59
2023-01-17T02:06:45.554Z,2.59
2023-01-17T02:07:45.520Z,2.53
2023-01-17T02:08:45.511Z,2.64
2023-01-17T02:09:45.520Z,2.61
2023-01-17T02:10:45.488Z,2.60
2023-01-17T02:11:45.531Z,2.67
2023-01-17T02:12:45.484Z,2.59
2023-01-17T02:13:45.474Z,2.63
2023-01-17T02:14:45.457Z,2.67
2023-01-17T02:15:45.472Z,2.66
2023-01-17T02:16:45.511Z,2.66
2023-01-17T02:17:45.466Z,2.72
2023-01-17T02:18:45.394Z,2.66
2023-01-17T02:19:45.382Z,2.61
2023-01-17T02:20:45.420Z,2.66
2023-01-17T02:21:45.409Z,2.63
2023-01-17T02:22:45.364Z,2.64
2023-01-17T02:23:45.346Z,2.61
2023-01-17T02:24:45.356Z,2.59
2023-01-17T02:25:45.327Z,2.63
2023-01-17T02:26:45.303Z,2.59
2023-01-17T02:27:45.304Z,2.63
2023-01-17T02:28:45.287Z,2.60
2023-01-17T02:29:45.289Z,2.59
2023-01-17T02:30:45.320Z,2.60
2023-01-17T02:31:45.307Z,2.59
2023-01-17T02:32:45.262Z,2.46
2023-01-17T02:33:45.218Z,2.57
2023-01-17T02:34:45.234Z,2.60
2023-01-17T02:35:45.199Z,2.57
2023-01-17T02:36:45.213Z,2.56
2023-01-17T02:37:45.196Z,2.48
2023-01-17T02:38:45.187Z,2.52
2023-01-17T02:39:45.147Z,2.56
2023-01-17T02:40:45.204Z,2.57
2023-01-17T02:41:45.150Z,2.52
2023-01-17T02:42:45.187Z,2.56
2023-01-17T02:43:45.160Z,2.49
2023-01-17T02:44:45.095Z,2.52
2023-01-17T02:45:45.127Z,2.54
2023-01-17T02:46:45.096Z,2.63
2023-01-17T02:47:45.125Z,2.54
2023-01-17T02:48:45.190Z,2.61
2023-01-17T02:49:45.035Z,2.59
2023-01-17T02:50:45.042Z,2.63
2023-01-17T02:51:45.027Z,2.63
2023-01-17T02:52:45.066Z,2.61
2023-01-17T02:53:44.996Z,2.61
2023-01-17T02:54:44.996Z,2.59
2023-01-17T02:55:44.985Z,2.63
2023-01-17T02:56:45.037Z,2.57
2023-01-17T02:57:44.973Z,2.57
2023-01-17T02:58:44.948Z,2.61
2023-01-17T02:59:44.966Z,2.57
2023-01-17T03:00:44.994Z,2.53
2023-01-17T03:01:45.182Z,2.54
2023-01-17T03:02:45.011Z,2.66
2023-01-17T03:03:44.900Z,2.64
2023-01-17T03:04:44.893Z,2.63
2023-01-17T03:05:44.896Z,2.66
2023-01-17T03:06:44.868Z,2.59
2023-01-17T03:07:44.844Z,2.59
2023-01-17T03:08:44.847Z,2.54
2023-01-17T03:09:44.810Z,2.53
2023-01-17T03:10:44.812Z,2.63
2023-01-17T03:11:44.806Z,2.61
2023-01-17T03:12:45.023Z,2.61
2023-01-17T03:13:44.777Z,2.61
2023-01-17T03:14:44.765Z,2.64
2023-01-17T03:15:44.758Z,2.59
2023-01-17T03:16:44.785Z,2.59
2023-01-17T03:17:44.761Z,2.60
2023-01-17T03:18:44.727Z,2.59
2023-01-17T03:19:44.726Z,2.61
2023-01-17T03:20:44.703Z,2.60
2023-01-17T03:21:44.687Z,2.60
2023-01-17T03:22:44.677Z,2.63
2023-01-17T03:23:44.665Z,2.56
2023-01-17T03:24:44.660Z,2.66
2023-01-17T03:25:44.638Z,2.60
2023-01-17T03:26:44.652Z,2.59
2023-01-17T03:27:44.617Z,2.59
2023-01-17T03:28:44.618Z,2.61
2023-01-17T03:29:44.583Z,2.61
2023-01-17T03:30:44.604Z,2.64
2023-01-17T03:31:44.572Z,2.56
2023-01-17T03:32:44.575Z,2.64
2023-01-17T03:33:44.737Z,2.63
2023-01-17T03:34:44.535Z,2.60
2023-01-17T03:35:44.533Z,2.60
2023-01-17T03:36:44.514Z,2.60
2023-01-17T03:37:44.534Z,2.57
2023-01-17T03:38:44.488Z,2.63
2023-01-17T03:39:44.505Z,2.53
2023-01-17T03:40:44.459Z,2.49
2023-01-17T03:41:44.452Z,2.61
2023-01-17T03:42:44.460Z,2.59
2023-01-17T03:43:44.475Z,2.49
2023-01-17T03:44:44.420Z,2.60
2023-01-17T03:45:44.481Z,2.57
2023-01-17T03:46:44.419Z,2.53
2023-01-17T03:47:44.397Z,2.52
2023-01-17T03:48:44.439Z,2.53
2023-01-17T03:49:44.388Z,2.43
2023-01-17T03:50:44.383Z,2.45
2023-01-17T03:51:44.338Z,2.45
2023-01-17T03:52:44.364Z,2.48
2023-01-17T03:53:44.326Z,2.31
2023-01-17T03:54:44.338Z,2.49
2023-01-17T03:55:44.329Z,2.45
2023-01-17T03:56:44.289Z,2.35
2023-01-17T03:57:44.273Z,2.45
2023-01-17T03:58:44.265Z,2.35
2023-01-17T03:59:44.273Z,2.35
2023-01-17T04:00:44.291Z,2.35
2023-01-17T04:01:44.317Z,2.34
2023-01-17T04:02:44.260Z,2.36
2023-01-17T04:03:44.207Z,2.42
2023-01-17T04:04:44.194Z,2.35
2023-01-17T04:05:44.237Z,2.35
2023-01-17T04:06:44.169Z,2.38
2023-01-17T04:07:44.202Z,2.34
2023-01-17T04:08:44.141Z,2.36
2023-01-17T04:09:44.135Z,2.45
2023-01-17T04:10:44.141Z,2.31
2023-01-17T04:11:44.119Z,2.36
2023-01-17T04:12:44.123Z,2.35
2023-01-17T04:13:44.087Z,2.35
2023-01-17T04:14:44.089Z,2.38
2023-01-17T04:15:44.127Z,2.39
2023-01-17T04:16:44.120Z,2.35
2023-01-17T04:17:44.056Z,2.34
2023-01-17T04:18:44.082Z,2.36
2023-01-17T04:19:44.059Z,2.43
2023-01-17T04:20:44.023Z,2.46
2023-01-17T04:21:44.014Z,2.43
2023-01-17T04:22:44.033Z,2.36
2023-01-17T04:23:44.020Z,2.39
2023-01-17T04:24:43.992Z,2.35
2023-01-17T04:25:43.995Z,2.35
2023-01-17T04:26:43.945Z,2.27
2023-01-17T04:27:43.953Z,2.36
2023-01-17T04:28:44.019Z,2.36
2023-01-17T04:29:46.577Z,2.30
2023-01-17T04:30:44.009Z,2.30
2023-01-17T04:31:44.077Z,2.24
2023-01-17T04:32:43.900Z,2.34
2023-01-17T04:33:43.882Z,2.24
2023-01-17T04:34:43.852Z,2.23
2023-01-17T04:35:43.869Z,2.25
2023-01-17T04:36:43.932Z,2.25
2023-01-17T04:37:43.849Z,2.24
2023-01-17T04:38:43.827Z,2.18
2023-01-17T04:39:43.826Z,2.12
2023-01-17T04:40:43.785Z,2.07
2023-01-17T04:41:43.781Z,2.10
2023-01-17T04:42:43.802Z,2.18
2023-01-17T04:43:43.756Z,2.07
2023-01-17T04:44:43.831Z,1.98
2023-01-17T04:45:43.734Z,2.05
2023-01-17T04:46:43.737Z,1.95
2023-01-17T04:47:43.703Z,1.87
2023-01-17T04:48:43.784Z,1.83
2023-01-17T04:49:44.232Z,1.80
2023-01-17T04:50:43.690Z,1.84
2023-01-17T04:51:52.595Z,1.80
2023-01-17T04:52:43.792Z,1.80
2023-01-17T04:53:43.777Z,1.83
2023-01-17T04:54:43.770Z,1.81
2023-01-17T04:55:43.781Z,1.80
2023-01-17T04:56:43.675Z,1.77
2023-01-17T04:57:43.611Z,1.83
2023-01-17T04:58:43.594Z,1.79
2023-01-17T04:59:43.571Z,1.84
2023-01-17T05:00:43.620Z,1.83
2023-01-17T05:01:43.564Z,1.72
2023-01-17T05:02:43.560Z,1.86
2023-01-17T05:03:43.522Z,1.87
2023-01-17T05:04:43.555Z,1.80
2023-01-17T05:05:43.514Z,1.81
2023-01-17T05:06:43.486Z,1.90
2023-01-17T05:07:43.480Z,1.86
2023-01-17T05:08:43.486Z,1.81
2023-01-17T05:09:43.495Z,1.95
2023-01-17T05:10:43.741Z,1.93
2023-01-17T05:11:43.436Z,1.86
2023-01-17T05:12:43.436Z,1.93
2023-01-17T05:13:43.428Z,1.86
2023-01-17T05:14:43.446Z,1.84
2023-01-17T05:15:43.424Z,1.91
2023-01-17T05:16:43.379Z,1.84
2023-01-17T05:17:43.410Z,1.88
2023-01-17T05:18:43.377Z,1.90
2023-01-17T05:19:43.349Z,1.84
2023-01-17T05:20:43.433Z,1.91
2023-01-17T05:21:43.320Z,1.88
2023-01-17T05:22:43.322Z,1.90
2023-01-17T05:23:43.309Z,1.91
2023-01-17T05:24:43.288Z,1.91
2023-01-17T05:25:43.298Z,1.93
2023-01-17T05:26:43.301Z,1.88
2023-01-17T05:27:43.255Z,1.93
2023-01-17T05:28:43.257Z,1.93
2023-01-17T05:29:43.228Z,1.99
2023-01-17T05:30:43.299Z,1.91
2023-01-17T05:31:43.214Z,1.83
2023-01-17T05:32:43.315Z,1.88
2023-01-17T05:33:43.225Z,1.87
2023-01-17T05:34:43.935Z,1.98
2023-01-17T05:35:43.179Z,1.95
2023-01-17T05:36:43.170Z,2.03
2023-01-17T05:37:43.160Z,1.98
2023-01-17T05:38:43.128Z,1.98
2023-01-17T05:39:43.112Z,1.95
2023-01-17T05:40:43.116Z,1.90
2023-01-17T05:41:43.107Z,1.88
2023-01-17T05:42:43.122Z,1.87
2023-01-17T05:43:43.085Z,1.88
2023-01-17T05:44:43.053Z,1.93
2023-01-17T05:45:43.063Z,1.88
2023-01-17T05:46:43.038Z,1.90
2023-01-17T05:47:43.047Z,1.91
2023-01-17T05:48:43.127Z,1.91
2023-01-17T05:49:45.826Z,1.90
2023-01-17T05:50:43.047Z,1.90
2023-01-17T05:51:42.999Z,1.86
2023-01-17T05:52:42.969Z,1.95
2023-01-17T05:53:42.990Z,1.95
2023-01-17T05:54:42.982Z,1.83
2023-01-17T05:55:42.959Z,1.87
2023-01-17T05:56:42.926Z,1.88
2023-01-17T05:57:42.924Z,1.87
2023-01-17T05:58:42.905Z,1.81
2023-01-17T05:59:42.909Z,1.95
2023-01-17T06:00:42.904Z,1.88
2023-01-17T06:01:42.868Z,1.90
2023-01-17T06:02:42.940Z,1.91
2023-01-17T06:03:42.871Z,1.83
2023-01-17T06:04:42.958Z,2.00
2023-01-17T06:05:42.830Z,1.93
2023-01-17T06:06:42.836Z,1.87
2023-01-17T06:07:42.799Z,1.84
2023-01-17T06:08:42.805Z,1.76
2023-01-17T06:09:42.775Z,1.83
2023-01-17T06:10:42.774Z,1.93
2023-01-17T06:11:42.771Z,1.91
2023-01-17T06:12:42.762Z,1.93
2023-01-17T06:13:42.750Z,1.95
2023-01-17T06:14:42.730Z,2.00
2023-01-17T06:15:42.772Z,1.93
2023-01-17T06:16:42.703Z,1.87
2023-01-17T06:17:42.714Z,1.95
2023-01-17T06:18:42.714Z,1.98
2023-01-17T06:19:42.716Z,1.90
2023-01-17T06:20:42.669Z,1.87
2023-01-17T06:21:42.669Z,1.87
2023-01-17T06:22:42.651Z,1.93
2023-01-17T06:23:42.641Z,1.83
2023-01-17T06:24:42.643Z,1.84
2023-01-17T06:25:42.603Z,1.80
2023-01-17T06:26:42.580Z,1.84
2023-01-17T06:27:42.593Z,1.80
2023-01-17T06:28:42.580Z,1.83
2023-01-17T06:29:42.567Z,1.83
2023-01-17T06:30:42.550Z,1.87
2023-01-17T06:31:42.542Z,1.81
2023-01-17T06:32:42.548Z,1.86
2023-01-17T06:33:42.517Z,1.83
2023-01-17T06:34:42.513Z,1.80
2023-01-17T06:35:42.513Z,1.84
2023-01-17T06:36:42.473Z,1.86
2023-01-17T06:37:42.460Z,1.86
2023-01-17T06:38:42.511Z,1.99
2023-01-17T06:39:42.443Z,1.93
2023-01-17T06:40:42.440Z,1.90
2023-01-17T06:41:42.422Z,1.83
2023-01-17T06:42:42.402Z,1.83
2023-01-17T06:43:42.414Z,1.81
2023-01-17T06:44:42.412Z,1.88
2023-01-17T06:45:42.401Z,1.84
2023-01-17T06:46:42.397Z,1.86
2023-01-17T06:47:42.440Z,1.98
2023-01-17T06:48:42.332Z,1.88
2023-01-17T06:49:42.338Z,1.80
2023-01-17T06:50:42.332Z,1.83
2023-01-17T06:51:43.739Z,1.80
2023-01-17T06:52:42.288Z,1.79
2023-01-17T06:53:42.331Z,1.81
2023-01-17T06:54:42.267Z,1.79
2023-01-17T06:55:42.257Z,1.80
2023-01-17T06:56:42.380Z,1.65
2023-01-17T06:57:42.274Z,1.76
2023-01-17T06:58:42.238Z,1.79
2023-01-17T06:59:42.229Z,1.72
2023-01-17T07:00:42.260Z,1.79
2023-01-17T07:01:42.268Z,1.68
2023-01-17T07:02:42.225Z,1.70
2023-01-17T07:03:42.251Z,1.72
2023-01-17T07:04:42.151Z,1.70
2023-01-17T07:05:42.166Z,1.68
2023-01-17T07:06:42.167Z,1.58
2023-01-17T07:07:42.122Z,1.54
2023-01-17T07:08:42.175Z,1.55
2023-01-17T07:09:42.101Z,1.58
2023-01-17T07:10:42.107Z,1.65
2023-01-17T07:11:42.085Z,1.54
2023-01-17T07:12:42.114Z,1.52
2023-01-17T07:13:42.075Z,1.36
2023-01-17T07:14:42.083Z,1.37
2023-01-17T07:15:42.070Z,1.34
2023-01-17T07:16:42.041Z,1.26
2023-01-17T07:17:42.035Z,1.27
2023-01-17T07:18:42.046Z,1.33
2023-01-17T07:19:41.999Z,1.23
2023-01-17T07:20:41.965Z,1.29
2023-01-17T07:21:41.972Z,1.22
2023-01-17T07:22:41.948Z,1.16
2023-01-17T07:23:41.962Z,1.24
2023-01-17T07:24:41.953Z,1.26
2023-01-17T07:25:41.940Z,1.30
2023-01-17T07:26:41.920Z,1.26
2023-01-17T07:27:41.892Z,1.33
2023-01-17T07:28:41.894Z,1.40
2023-01-17T07:29:41.873Z,1.32
2023-01-17T07:30:41.876Z,1.40
2023-01-17T07:31:41.983Z,1.37
2023-01-17T07:32:41.838Z,1.37
2023-01-17T07:33:41.830Z,1.40
2023-01-17T07:34:41.833Z,1.41
2023-01-17T07:35:41.825Z,1.45
2023-01-17T07:36:41.804Z,1.37
2023-01-17T07:37:41.774Z,1.41
2023-01-17T07:38:41.773Z,1.36
2023-01-17T07:39:41.800Z,1.44
2023-01-17T07:40:42.487Z,1.44
2023-01-17T07:41:41.739Z,1.47
2023-01-17T07:42:41.738Z,1.42
2023-01-17T07:43:41.717Z,1.42
2023-01-17T07:44:41.755Z,1.52
2023-01-17T07:45:41.682Z,1.47
2023-01-17T07:46:41.705Z,1.48
2023-01-17T07:47:41.675Z,1.52
2023-01-17T07:48:41.699Z,1.48
2023-01-17T07:49:41.654Z,1.44
2023-01-17T07:50:41.640Z,1.50
2023-01-17T07:51:41.637Z,1.51
2023-01-17T07:52:41.643Z,1.54
2023-01-17T07:53:41.624Z,1.47
2023-01-17T07:54:41.595Z,1.59
2023-01-17T07:55:41.621Z,1.54
2023-01-17T07:56:41.565Z,1.58
2023-01-17T07:57:41.550Z,1.59
2023-01-17T07:58:41.590Z,1.54
2023-01-17T07:59:41.597Z,1.47
2023-01-17T08:00:41.541Z,1.54
2023-01-17T08:01:41.682Z,1.51
2023-01-17T08:02:41.531Z,1.51
2023-01-17T08:03:41.544Z,1.54
2023-01-17T08:04:41.480Z,1.55
2023-01-17T08:05:41.505Z,1.51
2023-01-17T08:06:41.464Z,1.63
2023-01-17T08:07:41.468Z,1.60
2023-01-17T08:08:41.427Z,1.63
2023-01-17T08:09:41.413Z,1.58
2023-01-17T08:10:41.428Z,1.58
2023-01-17T08:11:41.427Z,1.51
2023-01-17T08:12:41.424Z,1.54
2023-01-17T08:13:41.378Z,1.55
2023-01-17T08:14:41.359Z,1.51
2023-01-17T08:15:41.355Z,1.47
2023-01-17T08:16:41.389Z,1.51
2023-01-17T08:17:41.325Z,1.42
2023-01-17T08:18:41.325Z,1.40
2023-01-17T08:19:41.458Z,1.44
2023-01-17T08:20:41.317Z,1.41
2023-01-17T08:21:41.301Z,1.42
2023-01-17T08:22:41.281Z,1.42
2023-01-17T08:23:41.304Z,1.37
2023-01-17T08:24:41.259Z,1.42
2023-01-17T08:25:41.257Z,1.37
2023-01-17T08:26:41.257Z,1.37
2023-01-17T08:27:41.249Z,1.33
2023-01-17T08:28:41.215Z,1.42
2023-01-17T08:29:41.187Z,1.37
2023-01-17T08:30:41.208Z,1.40
2023-01-17T08:31:41.248Z,1.41
2023-01-17T08:32:41.175Z,1.47
2023-01-17T08:33:41.146Z,1.48
2023-01-17T08:34:41.237Z,1.51
2023-01-17T08:35:41.125Z,1.51
2023-01-17T08:36:41.122Z,1.59
2023-01-17T08:37:41.120Z,1.54
2023-01-17T08:38:41.121Z,1.59
2023-01-17T08:39:41.118Z,1.52
2023-01-17T08:40:41.173Z,1.59
2023-01-17T08:41:41.053Z,1.68
2023-01-17T08:42:41.055Z,1.60
2023-01-17T08:43:41.045Z,1.65
2023-01-17T08:44:41.036Z,1.68
2023-01-17T08:45:41.069Z,1.72
2023-01-17T08:46:41.033Z,1.69
2023-01-17T08:47:41.019Z,1.79
2023-01-17T08:48:41.050Z,1.76
2023-01-17T08:49:40.978Z,1.70
2023-01-17T08:50:40.955Z,1.80
2023-01-17T08:51:40.989Z,1.79
2023-01-17T08:52:40.930Z,1.91
2023-01-17T08:53:40.932Z,2.05
2023-01-17T08:54:40.953Z,2.06
2023-01-17T08:55:40.948Z,2.05
2023-01-17T08:56:40.920Z,2.07
2023-01-17T08:57:40.873Z,2.03
2023-01-17T08:58:40.877Z,2.07
2023-01-17T08:59:40.863Z,2.20
2023-01-17T09:00:40.858Z,2.23
2023-01-17T09:01:41.051Z,2.17
2023-01-17T09:02:40.821Z,2.14
2023-01-17T09:03:41.047Z,2.20
2023-01-17T09:04:40.883Z,2.18
2023-01-17T09:05:40.810Z,2.20
2023-01-17T09:06:40.783Z,2.18
2023-01-17T09:07:40.763Z,2.06
2023-01-17T09:08:40.751Z,2.00
2023-01-17T09:09:40.768Z,2.18
2023-01-17T09:10:40.808Z,2.00
2023-01-17T09:11:40.754Z,2.09
2023-01-17T09:12:40.719Z,2.00
2023-01-17T09:13:40.694Z,2.09
2023-01-17T09:14:40.702Z,2.18
2023-01-17T09:15:40.686Z,2.06
2023-01-17T09:16:40.724Z,2.10
2023-01-17T09:17:40.669Z,2.07
2023-01-17T09:18:40.648Z,2.00
2023-01-17T09:19:40.643Z,1.90
2023-01-17T09:20:40.619Z,1.88
2023-01-17T09:21:40.681Z,1.95
2023-01-17T09:22:40.604Z,1.93
2023-01-17T09:23:40.601Z,1.83
2023-01-17T09:24:40.608Z,1.88
2023-01-17T09:25:40.585Z,1.80
2023-01-17T09:26:40.614Z,1.80
2023-01-17T09:27:40.563Z,1.83
2023-01-17T09:28:40.534Z,1.79
2023-01-17T09:29:40.589Z,1.80
2023-01-17T09:30:40.511Z,1.83
2023-01-17T09:31:40.495Z,1.80
2023-01-17T09:32:40.498Z,1.68
2023-01-17T09:33:40.466Z,1.81
2023-01-17T09:34:40.518Z,1.81
2023-01-17T09:35:40.471Z,1.83
2023-01-17T09:36:40.442Z,1.84
2023-01-17T09:37:40.437Z,1.79
2023-01-17T09:38:40.440Z,1.83
2023-01-17T09:39:40.407Z,1.87
2023-01-17T09:40:40.424Z,1.90
2023-01-17T09:41:40.405Z,1.87
2023-01-17T09:42:40.423Z,1.81
2023-01-17T09:43:41.039Z,1.86
2023-01-17T09:44:40.353Z,1.84
2023-01-17T09:45:40.362Z,1.98
2023-01-17T09:46:40.347Z,1.87
2023-01-17T09:47:40.309Z,1.88
2023-01-17T09:48:40.407Z,1.88
2023-01-17T09:49:40.315Z,1.83
2023-01-17T09:50:40.275Z,1.86
2023-01-17T09:51:40.290Z,1.83
2023-01-17T09:52:40.250Z,1.81
2023-01-17T09:53:40.242Z,1.83
2023-01-17T09:54:40.247Z,1.90
2023-01-17T09:55:40.291Z,1.84
2023-01-17T09:56:40.215Z,1.80
2023-01-17T09:57:40.227Z,1.83
2023-01-17T09:58:40.265Z,1.86
2023-01-17T09:59:40.806Z,1.88
2023-01-17T10:00:40.216Z,1.90
2023-01-17T10:01:40.323Z,1.95
2023-01-17T10:02:40.275Z,1.81
2023-01-17T10:03:40.294Z,1.79
2023-01-17T10:04:40.118Z,1.80
2023-01-17T10:05:40.102Z,1.79
2023-01-17T10:06:40.123Z,1.83
2023-01-17T10:07:40.077Z,1.81
2023-01-17T10:08:40.129Z,1.77
2023-01-17T10:09:40.055Z,1.80
2023-01-17T10:10:40.047Z,1.81
2023-01-17T10:11:40.069Z,1.83
2023-01-17T10:12:40.162Z,1.93
2023-01-17T10:13:40.044Z,2.03
2023-01-17T10:14:40.008Z,1.95
2023-01-17T10:15:40.044Z,2.12
2023-01-17T10:16:40.018Z,2.05
2023-01-17T10:17:39.968Z,2.07
2023-01-17T10:18:39.961Z,2.07
2023-01-17T10:19:39.963Z,2.14
2023-01-17T10:20:40.015Z,2.05
2023-01-17T10:21:39.966Z,2.06
2023-01-17T10:22:39.941Z,2.12
2023-01-17T10:23:39.936Z,2.07
2023-01-17T10:24:39.922Z,2.05
2023-01-17T10:25:39.903Z,2.10
2023-01-17T10:26:39.868Z,2.07
2023-01-17T10:27:39.863Z,2.10
2023-01-17T10:28:39.842Z,2.00
2023-01-17T10:29:39.901Z,2.10
2023-01-17T10:30:39.839Z,2.09
2023-01-17T10:31:39.868Z,2.06
2023-01-17T10:32:39.826Z,2.07
2023-01-17T10:33:39.791Z,2.02
2023-01-17T10:34:39.816Z,2.10
2023-01-17T10:35:39.771Z,2.03
2023-01-17T10:36:39.761Z,2.09
2023-01-17T10:37:39.755Z,1.90
2023-01-17T10:38:42.473Z,1.88
2023-01-17T10:39:39.745Z,1.93
2023-01-17T10:40:39.711Z,1.84
2023-01-17T10:41:39.746Z,1.73
2023-01-17T10:42:39.706Z,1.77
2023-01-17T10:43:39.733Z,1.68
2023-01-17T10:44:39.674Z,1.69
2023-01-17T10:45:39.705Z,1.69
2023-01-17T10:46:39.659Z,1.72
2023-01-17T10:47:39.668Z,1.72
2023-01-17T10:48:39.647Z,1.68
2023-01-17T10:49:39.609Z,1.68
2023-01-17T10:50:39.593Z,1.69
2023-01-17T10:51:39.625Z,1.65
2023-01-17T10:52:48.630Z,1.65
2023-01-17T10:53:39.569Z,1.63
2023-01-17T10:54:39.565Z,1.68
2023-01-17T10:55:39.580Z,1.69
2023-01-17T10:56:39.675Z,1.60
2023-01-17T10:57:39.548Z,1.76
2023-01-17T10:58:39.530Z,1.66
2023-01-17T10:59:39.502Z,1.77
2023-01-17T11:00:39.478Z,1.73
2023-01-17T11:01:39.643Z,1.77
2023-01-17T11:02:39.545Z,1.70
2023-01-17T11:03:39.447Z,1.79
2023-01-17T11:04:39.467Z,1.80
2023-01-17T11:05:39.452Z,1.77
2023-01-17T11:06:57.103Z,1.72
2023-01-17T11:07:40.913Z,1.80
2023-01-17T11:08:39.405Z,1.86
2023-01-17T11:09:39.413Z,1.77
2023-01-17T11:10:39.380Z,1.79
2023-01-17T11:11:39.365Z,1.79
2023-01-17T11:12:39.360Z,1.80
2023-01-17T11:13:39.372Z,1.77
2023-01-17T11:14:39.339Z,1.80
2023-01-17T11:15:39.457Z,1.83
2023-01-17T11:16:39.313Z,1.76
2023-01-17T11:17:39.322Z,1.83
2023-01-17T11:18:39.316Z,1.83
2023-01-17T11:19:39.306Z,1.86
2023-01-17T11:20:39.277Z,1.83
2023-01-17T11:21:39.252Z,1.98
2023-01-17T11:22:39.271Z,1.79
2023-01-17T11:23:39.255Z,1.84
2023-01-17T11:24:39.231Z,1.93
2023-01-17T11:25:39.222Z,1.99
2023-01-17T11:26:39.209Z,2.02
2023-01-17T11:27:39.282Z,2.00
2023-01-17T11:28:39.179Z,2.05
2023-01-17T11:29:39.176Z,2.09
2023-01-17T11:30:39.157Z,2.09
2023-01-17T11:31:39.152Z,2.16
2023-01-17T11:32:39.154Z,2.20
2023-01-17T11:33:39.137Z,2.18
2023-01-17T11:34:39.116Z,2.27
2023-01-17T11:35:39.093Z,2.25
2023-01-17T11:36:39.089Z,2.45
2023-01-17T11:37:39.114Z,2.56
2023-01-17T11:38:39.065Z,2.79
2023-01-17T11:39:39.053Z,2.87
2023-01-17T11:40:39.044Z,3.13
2023-01-17T11:43:38.253Z,3.65
2023-01-17T11:45:54.205Z,3.88
2023-01-17T11:46:54.228Z,4.00
2023-01-17T11:47:54.151Z,4.05
2023-01-17T11:48:56.166Z,4.02
2023-01-17T11:49:54.124Z,3.94
2023-01-17T11:50:54.138Z,3.76
2023-01-17T11:51:54.090Z,3.65
2023-01-17T11:52:54.112Z,3.65
2023-01-17T11:53:54.089Z,3.65
2023-01-17T11:54:54.079Z,3.57
2023-01-17T11:55:54.078Z,3.60
2023-01-17T11:56:54.092Z,3.60
2023-01-17T11:57:55.807Z,3.60
2023-01-17T11:58:54.028Z,3.68
2023-01-17T11:59:54.011Z,3.80
2023-01-17T12:00:54.043Z,3.93
2023-01-17T12:01:53.971Z,4.12
2023-01-17T12:02:54.016Z,4.15
2023-01-17T12:03:53.996Z,4.18
2023-01-17T12:04:54.020Z,4.26
2023-01-17T12:05:53.929Z,4.36
2023-01-17T12:06:57.893Z,4.52
2023-01-17T12:07:53.924Z,4.41
2023-01-17T12:08:53.984Z,4.37
2023-01-17T12:09:53.920Z,4.36
2023-01-17T12:10:53.886Z,4.40
2023-01-17T12:11:53.860Z,4.37
2023-01-17T12:12:53.863Z,4.36
2023-01-17T12:13:53.883Z,4.33
2023-01-17T12:14:53.877Z,4.30
2023-01-17T12:15:53.896Z,4.30
2023-01-17T12:16:53.862Z,4.16
2023-01-17T12:17:53.951Z,4.09
2023-01-17T12:18:53.827Z,4.12
2023-01-17T12:19:53.781Z,4.08
2023-01-17T12:20:53.783Z,4.08
2023-01-17T12:21:53.753Z,4.14
2023-01-17T12:22:53.750Z,4.18
2023-01-17T12:23:53.737Z,4.15
2023-01-17T12:24:53.725Z,4.11
2023-01-17T12:25:53.694Z,4.05
2023-01-17T12:26:53.708Z,4.06
2023-01-17T12:27:53.702Z,4.06
2023-01-17T12:28:53.701Z,3.98
2023-01-17T12:29:53.667Z,3.90
2023-01-17T12:30:53.668Z,3.80
2023-01-17T12:31:53.630Z,3.83
2023-01-17T12:32:53.626Z,3.79
2023-01-17T12:33:53.660Z,3.94
2023-01-17T12:34:53.619Z,3.98
2023-01-17T12:35:53.586Z,4.05
2023-01-17T12:37:01.342Z,4.08
2023-01-17T12:38:04.407Z,4.02
2023-01-17T12:38:54.765Z,4.00
2023-01-17T12:39:53.619Z,3.87
2023-01-17T12:40:53.760Z,3.76
2023-01-17T12:41:53.546Z,3.68
2023-01-17T12:42:53.639Z,3.61
2023-01-17T12:45:10.392Z,3.52
2023-01-17T12:46:11.134Z,3.54
2023-01-17T12:47:10.240Z,3.40
2023-01-17T12:48:10.326Z,3.35
2023-01-17T12:49:10.188Z,3.29
2023-01-17T12:50:10.179Z,3.24
2023-01-17T12:51:10.166Z,3.18
2023-01-17T12:52:10.166Z,3.17
2023-01-17T12:53:10.163Z,3.20
2023-01-17T12:54:10.168Z,3.20
2023-01-17T12:55:10.121Z,3.29
2023-01-17T12:56:10.104Z,3.40
2023-01-17T12:57:10.873Z,3.47
2023-01-17T12:58:10.072Z,3.58
2023-01-17T12:59:10.073Z,3.69
2023-01-17T13:00:10.055Z,3.70
2023-01-17T13:01:10.182Z,3.65
2023-01-17T13:02:10.100Z,3.70
2023-01-17T13:03:10.013Z,3.72
2023-01-17T13:04:10.039Z,3.75
2023-01-17T13:05:10.004Z,3.78
2023-01-17T13:06:09.983Z,3.78
2023-01-17T13:07:09.970Z,3.72
2023-01-17T13:08:10.037Z,3.75
2023-01-17T13:09:09.978Z,3.78
2023-01-17T13:10:09.943Z,3.76
2023-01-17T13:11:09.937Z,3.73
2023-01-17T13:12:09.920Z,3.61
2023-01-17T13:13:09.916Z,3.70
2023-01-17T13:14:09.940Z,3.57
2023-01-17T13:15:09.902Z,3.69
2023-01-17T13:16:09.915Z,3.69
2023-01-17T13:17:09.874Z,3.62
2023-01-17T13:18:09.849Z,3.57
2023-01-17T13:19:09.833Z,3.57
2023-01-17T13:20:09.839Z,3.57
2023-01-17T13:21:09.812Z,3.52
2023-01-17T13:22:09.823Z,3.48
2023-01-17T13:23:09.809Z,3.50